Time;durP1;ratioP1;P1;durP2;ratioP2;P2;SDS_P1;SDS_P2;PMS_P1;PMS_P2;Temp;Humidity;BMP_temperature;BMP_pressure;BME280_temperature;BME280_humidity;BME280_pressure;Samples;Min_cycle;Max_cycle;Signal;HPM_P1;HPM_P2
2022/09/21 00:01:24;;;;;;;1.50;1.40;;;7.20;99.90;;;;;;5011021;28;20202;-64
2022/09/21 00:03:53;;;;;;;3.33;1.37;;;8.30;99.90;;;;;;5013339;28;20671;-64
2022/09/21 00:06:23;;;;;;;3.43;1.70;;;8.30;99.90;;;;;;5025264;28;20205;-64
2022/09/21 00:08:50;;;;;;;4.23;1.77;;;8.50;99.90;;;;;;5026742;28;20193;-64
2022/09/21 00:11:20;;;;;;;3.50;1.90;;;8.30;99.90;;;;;;4993995;28;20690;-64
2022/09/21 00:13:48;;;;;;;3.40;1.70;;;;;;;;;;5009059;28;20190;-64
2022/09/21 00:16:16;;;;;;;3.10;1.40;;;8.30;99.90;;;;;;5017704;28;20240;-64
2022/09/21 00:18:43;;;;;;;2.67;1.70;;;8.50;99.90;;;;;;5010063;28;20202;-64
2022/09/21 00:21:13;;;;;;;3.53;1.87;;;8.40;99.90;;;;;;5020182;28;20205;-64
2022/09/21 00:23:42;;;;;;;5.10;1.60;;;8.50;99.90;;;;;;5023388;28;20914;-64
2022/09/21 00:26:11;;;;;;;2.93;1.60;;;8.70;99.90;;;;;;5010285;28;20311;-65
2022/09/21 00:28:39;;;;;;;6.37;1.90;;;8.80;99.90;;;;;;5024045;28;20548;-64
2022/09/21 00:31:08;;;;;;;2.17;1.70;;;7.20;99.90;;;;;;4989613;28;21844;-64
2022/09/21 00:33:35;;;;;;;2.37;1.80;;;;;;;;;;5014821;28;20201;-64
2022/09/21 00:36:03;;;;;;;2.07;1.70;;;8.40;99.90;;;;;;5013855;28;20218;-64
2022/09/21 00:38:30;;;;;;;1.40;1.30;;;8.70;99.90;;;;;;5025990;28;20602;-64
2022/09/21 00:40:59;;;;;;;5.30;1.73;;;8.50;99.90;;;;;;5006251;28;20206;-64
2022/09/21 00:43:25;;;;;;;2.60;1.73;;;8.70;99.90;;;;;;5026636;28;20202;-64
2022/09/21 00:45:59;;;;;;;3.43;1.40;;;6.30;99.90;;;;;;4989507;28;20229;-65
2022/09/21 00:48:26;;;;;;;7.03;1.60;;;8.50;99.90;;;;;;5016053;28;20575;-65
2022/09/21 00:50:56;;;;;;;3.23;1.60;;;8.40;99.90;;;;;;5009517;28;20233;-64
2022/09/21 00:53:23;;;;;;;5.00;2.00;;;8.60;99.90;;;;;;5026337;28;20706;-64
2022/09/21 00:55:55;;;;;;;2.17;1.63;;;8.40;99.90;;;;;;5002702;28;20236;-64
2022/09/21 00:58:31;;;;;;;4.10;2.00;;;8.40;99.90;;;;;;5026390;28;20248;-64
2022/09/21 01:00:59;;;;;;;5.43;2.10;;;9.70;99.90;;;;;;4996796;28;20221;-64
2022/09/21 01:03:28;;;;;;;2.87;1.97;;;8.20;99.90;;;;;;5020569;28;20201;-64
2022/09/21 01:05:54;;;;;;;4.17;2.23;;;8.20;99.90;;;;;;5000321;28;20202;-64
2022/09/21 01:08:22;;;;;;;2.93;2.07;;;7.50;99.90;;;;;;5026760;28;20197;-64
2022/09/21 01:11:08;;;;;;;6.93;2.03;;;7.00;99.90;;;;;;5008687;28;20201;-64
2022/09/21 01:13:47;;;;;;;6.50;2.57;;;9.00;99.90;;;;;;5024251;28;20200;-63
2022/09/21 01:16:19;;;;;;;2.97;2.20;;;8.00;99.90;;;;;;5002827;28;20749;-64
2022/09/21 01:18:52;;;;;;;3.63;2.30;;;8.30;99.90;;;;;;5024580;28;20198;-64
2022/09/21 01:21:22;;;;;;;2.83;2.03;;;7.70;99.90;;;;;;5015747;28;20252;-64
2022/09/21 01:24:30;;;;;;;2.30;2.10;;;7.80;99.90;;;;;;5017133;28;20206;-64
2022/09/21 01:27:17;;;;;;;3.03;2.13;;;7.90;99.90;;;;;;4996810;28;20220;-64
2022/09/21 01:29:52;;;;;;;10.90;2.50;;;7.90;99.90;;;;;;5011962;28;20210;-64
2022/09/21 01:32:23;;;;;;;2.00;1.80;;;8.20;99.90;;;;;;4997852;28;20200;-64
2022/09/21 01:34:55;;;;;;;7.13;1.90;;;6.30;99.90;;;;;;5016442;28;21091;-64
2022/09/21 01:37:26;;;;;;;2.33;1.70;;;7.90;99.90;;;;;;5004441;28;20197;-64
2022/09/21 01:39:58;;;;;;;2.40;1.90;;;8.00;99.90;;;;;;5019799;28;20198;-64
2022/09/21 01:42:28;;;;;;;2.97;1.80;;;8.00;99.90;;;;;;5004673;28;20210;-64
2022/09/21 01:45:00;;;;;;;2.00;1.73;;;8.20;99.90;;;;;;5024013;28;20206;-64
2022/09/21 01:47:30;;;;;;;1.57;1.47;;;8.20;99.90;;;;;;4996623;28;20275;-64
2022/09/21 01:50:02;;;;;;;2.20;1.80;;;7.90;99.90;;;;;;5025739;28;20332;-64
2022/09/21 01:52:34;;;;;;;1.83;1.50;;;8.00;99.90;;;;;;5018262;28;20690;-64
2022/09/21 01:55:04;;;;;;;1.63;1.40;;;8.20;99.90;;;;;;5010129;28;20221;-64
2022/09/21 01:57:38;;;;;;;1.80;1.50;;;8.00;99.90;;;;;;5022490;28;20197;-64
2022/09/21 02:00:08;;;;;;;2.27;1.70;;;7.80;99.90;;;;;;5002779;28;20225;-64
2022/09/21 02:02:41;;;;;;;3.53;1.50;;;7.70;99.90;;;;;;5002062;28;20216;-64
2022/09/21 02:05:08;;;;;;;4.37;1.60;;;7.90;99.90;;;;;;5021505;28;20821;-65
2022/09/21 02:07:37;;;;;;;2.27;1.77;;;8.00;99.90;;;;;;5011335;28;20206;-64
2022/09/21 02:10:07;;;;;;;1.50;1.40;;;7.70;99.90;;;;;;5011616;28;20222;-64
2022/09/21 02:12:34;;;;;;;1.50;1.40;;;8.00;99.90;;;;;;5025730;28;20201;-64
2022/09/21 02:15:02;;;;;;;1.50;1.40;;;7.90;99.90;;;;;;5004987;28;20220;-63
2022/09/21 02:17:39;;;;;;;2.47;1.43;;;7.20;99.90;;;;;;4996484;28;20198;-64
2022/09/21 02:20:17;;;;;;;2.03;1.60;;;7.90;99.90;;;;;;5025224;28;20779;-64
2022/09/21 02:22:54;;;;;;;1.40;1.30;;;7.80;99.90;;;;;;5016550;28;20317;-64
2022/09/21 02:25:28;;;;;;;4.27;1.40;;;7.70;99.90;;;;;;5016900;28;20206;-64
2022/09/21 02:27:57;;;;;;;1.40;1.13;;;7.70;99.90;;;;;;5035199;28;20209;-64
2022/09/21 02:30:25;;;;;;;1.50;1.40;;;7.50;99.90;;;;;;5011441;28;20209;-64
2022/09/21 02:33:02;;;;;;;1.60;1.50;;;7.60;99.90;;;;;;5019888;28;20205;-64
2022/09/21 02:35:36;;;;;;;1.63;1.53;;;7.50;99.90;;;;;;5002451;28;20202;-64
2022/09/21 02:38:09;;;;;;;1.50;1.40;;;7.40;99.90;;;;;;5020009;28;20202;-64
2022/09/21 02:40:40;;;;;;;1.50;1.40;;;7.60;99.90;;;;;;5007158;28;20588;-64
2022/09/21 02:43:10;;;;;;;8.63;1.53;;;7.40;99.90;;;;;;5031849;28;20236;-64
2022/09/21 02:45:41;;;;;;;1.90;1.70;;;7.50;99.90;;;;;;4998043;28;20229;-64
2022/09/21 02:48:13;;;;;;;1.80;1.70;;;7.50;99.90;;;;;;5031432;28;20201;-64
2022/09/21 02:50:44;;;;;;;8.00;1.90;;;7.20;99.90;;;;;;5001741;28;20230;-64
2022/09/21 02:53:14;;;;;;;1.67;1.50;;;7.30;99.90;;;;;;5032533;28;20209;-64
2022/09/21 02:55:43;;;;;;;4.20;2.07;;;7.30;99.90;;;;;;4998893;28;20234;-64
2022/09/21 02:58:13;;;;;;;1.90;1.70;;;7.50;99.90;;;;;;5028862;28;20714;-64
2022/09/21 03:00:40;;;;;;;12.87;1.93;;;7.70;99.90;;;;;;5001451;28;20217;-64
2022/09/21 03:03:17;;;;;;;15.03;1.87;;;7.60;99.90;;;;;;5014828;28;20585;-64
2022/09/21 03:05:45;;;;;;;6.77;2.10;;;7.60;99.90;;;;;;4995406;28;21729;-64
2022/09/21 03:08:11;;;;;;;30.50;2.07;;;7.60;99.90;;;;;;5022962;28;20655;-64
2022/09/21 03:10:39;;;;;;;25.73;2.40;;;7.50;99.90;;;;;;4997651;28;20210;-64
2022/09/21 03:13:07;;;;;;;43.57;3.13;;;7.60;99.90;;;;;;5023355;28;20222;-64
2022/09/21 03:15:35;;;;;;;12.87;2.03;;;10.30;99.90;;;;;;5003524;28;20209;-64
2022/09/21 03:18:03;;;;;;;20.13;2.33;;;7.60;99.90;;;;;;5017440;28;21811;-64
2022/09/21 03:20:32;;;;;;;2.17;1.73;;;6.30;99.90;;;;;;5008413;28;20201;-64
2022/09/21 03:22:59;;;;;;;1.77;1.67;;;7.50;99.90;;;;;;5030069;28;20201;-64
2022/09/21 03:25:27;;;;;;;1.93;1.70;;;7.50;99.90;;;;;;5007364;28;20206;-65
2022/09/21 03:27:53;;;;;;;1.60;1.50;;;7.50;99.90;;;;;;5025683;28;20667;-65
2022/09/21 03:30:21;;;;;;;1.70;1.60;;;7.50;99.90;;;;;;5025839;28;20202;-65
2022/09/21 03:32:50;;;;;;;2.33;1.63;;;7.30;99.90;;;;;;5007621;28;20221;-65
2022/09/21 03:35:16;;;;;;;3.40;1.43;;;7.20;99.90;;;;;;5025330;28;20202;-64
2022/09/21 03:37:45;;;;;;;7.97;1.83;;;7.10;99.90;;;;;;4997798;28;20229;-65
2022/09/21 03:40:12;;;;;;;4.73;1.60;;;7.10;99.90;;;;;;5009148;28;20212;-64
2022/09/21 03:42:40;;;;;;;1.53;1.43;;;7.20;99.90;;;;;;5012416;28;20202;-65
2022/09/21 03:45:08;;;;;;;9.10;1.60;;;7.20;99.90;;;;;;5017721;28;20261;-65
2022/09/21 03:47:35;;;;;;;2.93;1.70;;;7.10;99.90;;;;;;5003833;28;20213;-65
2022/09/21 03:50:02;;;;;;;2.80;1.60;;;7.20;99.90;;;;;;5023192;28;20233;-64
2022/09/21 03:52:30;;;;;;;1.67;1.57;;;;;;;;;;4997483;28;20240;-64
2022/09/21 03:54:58;;;;;;;1.60;1.50;;;7.60;99.90;;;;;;5016491;28;20249;-64
2022/09/21 03:57:25;;;;;;;19.23;1.77;;;8.00;99.90;;;;;;5006595;28;20240;-64
2022/09/21 03:59:53;;;;;;;6.37;1.83;;;7.20;99.90;;;;;;5025633;28;20568;-64
2022/09/21 04:02:21;;;;;;;2.00;1.80;;;7.20;99.90;;;;;;5020190;28;20641;-64
2022/09/21 04:04:48;;;;;;;2.17;1.70;;;7.60;99.90;;;;;;5019436;28;20426;-64
2022/09/21 04:07:15;;;;;;;8.83;2.00;;;;;;;;;;5022525;28;20753;-65
2022/09/21 04:09:42;;;;;;;44.50;3.07;;;7.60;99.90;;;;;;5006208;28;20205;-64
2022/09/21 04:12:10;;;;;;;16.20;2.27;;;7.00;99.90;;;;;;5029485;28;20206;-64
2022/09/21 04:14:36;;;;;;;4.73;1.70;;;7.20;99.90;;;;;;5010495;28;20214;-65
2022/09/21 04:17:04;;;;;;;4.40;1.70;;;7.20;99.90;;;;;;5026209;28;20236;-62
2022/09/21 04:19:31;;;;;;;6.93;1.80;;;6.10;99.90;;;;;;4984386;28;20827;-63
2022/09/21 04:21:57;;;;;;;3.17;1.60;;;7.30;99.90;;;;;;5005784;22;20235;-63
2022/09/21 04:24:24;;;;;;;1.83;1.70;;;7.40;99.90;;;;;;4964726;28;20206;-62
2022/09/21 04:26:51;;;;;;;7.47;1.87;;;7.30;99.90;;;;;;4983121;28;20204;-63
2022/09/21 04:29:19;;;;;;;2.13;1.43;;;6.90;99.90;;;;;;4976177;28;20208;-63
2022/09/21 04:31:46;;;;;;;1.93;1.73;;;8.20;99.90;;;;;;4985301;28;20207;-62
2022/09/21 04:34:13;;;;;;;1.73;1.63;;;7.20;99.90;;;;;;4969231;23;20230;-63
2022/09/21 04:36:40;;;;;;;2.93;1.70;;;10.60;99.90;;;;;;4981588;28;20233;-62
2022/09/21 04:39:07;;;;;;;5.30;1.70;;;7.30;99.90;;;;;;4962123;28;20210;-62
2022/09/21 04:41:34;;;;;;;1.60;1.50;;;7.20;99.90;;;;;;4983383;28;20213;-63
2022/09/21 04:44:01;;;;;;;4.67;1.97;;;7.20;99.90;;;;;;4983506;28;20211;-63
2022/09/21 04:46:29;;;;;;;1.50;1.40;;;7.30;99.90;;;;;;4948759;28;20224;-63
2022/09/21 04:48:56;;;;;;;1.60;1.50;;;7.20;99.90;;;;;;4957639;28;20226;-62
2022/09/21 04:51:23;;;;;;;6.53;1.90;;;8.10;99.90;;;;;;4933333;28;20227;-62
2022/09/21 04:53:50;;;;;;;9.83;1.77;;;7.10;99.90;;;;;;4961281;28;20230;-62
2022/09/21 04:56:17;;;;;;;1.73;1.63;;;;;;;;;;4911826;28;20693;-61
2022/09/21 04:58:46;;;;;;;12.00;1.97;;;5.70;99.90;;;;;;4939571;28;20241;-62
2022/09/21 05:01:13;;;;;;;1.60;1.50;;;6.70;99.90;;;;;;4946252;28;21021;-63
2022/09/21 05:03:41;;;;;;;3.87;1.50;;;8.90;99.90;;;;;;4948695;28;20222;-63
2022/09/21 05:06:12;;;;;;;6.80;1.90;;;;;;;;;;4939359;28;20611;-62
2022/09/21 05:11:24;;;;;;;2.50;1.90;;;4.50;99.90;;;;;;4921943;28;20260;-62
2022/09/21 05:13:51;;;;;;;4.27;2.23;;;7.00;99.90;;;;;;4958198;28;20199;-62
2022/09/21 05:16:19;;;;;;;3.00;1.73;;;6.90;99.90;;;;;;4946748;28;21199;-62
2022/09/21 05:18:47;;;;;;;12.63;2.00;;;7.30;99.90;;;;;;4964212;28;20200;-62
2022/09/21 05:21:15;;;;;;;2.63;2.20;;;9.10;99.90;;;;;;4946005;28;20204;-63
2022/09/21 05:23:42;;;;;;;50.97;2.90;;;6.90;99.90;;;;;;4953536;28;20324;-62
2022/09/21 05:26:09;;;;;;;17.13;2.57;;;;;;;;;;4928224;28;20322;-63
2022/09/21 05:28:36;;;;;;;36.93;2.70;;;6.90;99.90;;;;;;4950617;28;20562;-62
2022/09/21 05:31:11;;;;;;;33.40;2.97;;;7.00;99.90;;;;;;4949606;28;20218;-62
2022/09/21 05:33:42;;;;;;;18.87;2.67;;;7.20;99.90;;;;;;4972923;28;20344;-62
2022/09/21 05:36:27;;;;;;;14.13;2.70;;;4.70;99.90;;;;;;4972036;28;20215;-62
2022/09/21 05:38:55;;;;;;;21.70;2.40;;;7.30;99.90;;;;;;4984802;28;20198;-63
2022/09/21 05:41:23;;;;;;;22.93;2.77;;;5.20;99.90;;;;;;4957932;28;20216;-63
2022/09/21 05:43:50;;;;;;;26.50;2.63;;;7.80;99.90;;;;;;4976938;28;20369;-63
2022/09/21 05:46:20;;;;;;;14.87;2.07;;;7.20;99.90;;;;;;4973218;28;20233;-63
2022/09/21 05:48:54;;;;;;;33.20;2.70;;;7.20;99.90;;;;;;4984888;28;20222;-63
2022/09/21 05:51:33;;;;;;;16.83;2.20;;;7.20;99.90;;;;;;4961671;28;20206;-63
2022/09/21 05:54:06;;;;;;;27.10;2.90;;;7.50;99.90;;;;;;4980650;28;20226;-63
2022/09/21 05:56:44;;;;;;;47.00;3.87;;;8.40;99.90;;;;;;4983283;28;20211;-63
2022/09/21 05:59:31;;;;;;;45.33;3.53;;;7.30;99.90;;;;;;4950189;28;20250;-62
2022/09/21 06:02:06;;;;;;;30.37;3.27;;;7.30;99.90;;;;;;4978297;28;20245;-62
2022/09/21 06:04:33;;;;;;;29.30;2.70;;;8.30;99.90;;;;;;4981571;28;20842;-62
2022/09/21 06:07:01;;;;;;;12.47;2.53;;;7.40;99.90;;;;;;4990720;28;20206;-62
2022/09/21 06:09:28;;;;;;;6.73;2.20;;;7.50;99.90;;;;;;4970620;28;20563;-62
2022/09/21 06:11:55;;;;;;;8.37;2.33;;;7.40;99.90;;;;;;4987680;28;20574;-62
2022/09/21 06:14:24;;;;;;;6.30;2.30;;;8.50;99.90;;;;;;4961560;28;20984;-63
2022/09/21 06:16:52;;;;;;;7.87;2.60;;;8.70;99.90;;;;;;4971685;28;20321;-63
2022/09/21 06:19:19;;;;;;;21.60;2.43;;;9.40;99.90;;;;;;4987312;28;20227;-63
2022/09/21 06:21:46;;;;;;;19.20;2.33;;;8.80;99.90;;;;;;4986643;28;20290;-62
2022/09/21 06:24:14;;;;;;;6.53;2.23;;;8.60;99.90;;;;;;4972519;28;20203;-62
2022/09/21 06:26:41;;;;;;;22.23;2.93;;;8.40;99.90;;;;;;4990857;28;21206;-62
2022/09/21 06:29:08;;;;;;;67.50;3.40;;;8.40;99.90;;;;;;4971331;28;20208;-62
2022/09/21 06:31:35;;;;;;;22.73;3.17;;;8.10;99.90;;;;;;4972960;28;20225;-62
2022/09/21 06:34:02;;;;;;;64.37;3.70;;;8.10;99.90;;;;;;4965589;28;20246;-62
2022/09/21 06:36:29;;;;;;;64.57;4.13;;;9.50;99.90;;;;;;4961621;28;20210;-62
2022/09/21 06:38:56;;;;;;;92.13;4.37;;;8.30;99.90;;;;;;4971357;28;20251;-63
2022/09/21 06:41:24;;;;;;;158.30;6.07;;;8.30;99.90;;;;;;4936255;28;20801;-62
2022/09/21 06:43:54;;;;;;;152.00;7.20;;;9.00;99.90;;;;;;4963435;28;20216;-63
2022/09/21 06:46:20;;;;;;;146.43;7.10;;;8.50;99.90;;;;;;4935435;28;20242;-62
2022/09/21 06:48:48;;;;;;;151.53;6.50;;;8.60;99.90;;;;;;4952100;28;20235;-63
2022/09/21 06:51:15;;;;;;;210.97;7.47;;;9.20;99.90;;;;;;4954890;28;20864;-62
2022/09/21 06:53:42;;;;;;;123.73;5.73;;;8.90;99.90;;;;;;4963825;28;20220;-63
2022/09/21 06:56:11;;;;;;;188.97;7.27;;;8.90;99.90;;;;;;4932727;28;20220;-62
2022/09/21 06:58:39;;;;;;;118.40;5.90;;;9.30;99.90;;;;;;4969318;28;20243;-64
2022/09/21 07:01:07;;;;;;;83.03;5.13;;;9.20;99.90;;;;;;4924539;28;21176;-62
2022/09/21 07:03:34;;;;;;;54.03;4.70;;;9.30;99.90;;;;;;4950155;28;23229;-63
2022/09/21 07:06:01;;;;;;;103.33;5.43;;;9.40;99.90;;;;;;4966673;28;20767;-62
2022/09/21 07:08:28;;;;;;;107.53;5.73;;;9.50;99.90;;;;;;4965131;28;23015;-62
2022/09/21 07:10:58;;;;;;;123.13;6.23;;;9.60;99.90;;;;;;4948952;28;20203;-62
2022/09/21 07:13:25;;;;;;;62.33;4.97;;;9.60;99.90;;;;;;4950596;28;20246;-62
2022/09/21 07:15:53;;;;;;;75.13;5.47;;;10.10;99.90;;;;;;4934644;28;20224;-62
2022/09/21 07:18:20;;;;;;;83.43;6.37;;;10.50;99.90;;;;;;4953447;28;20223;-62
2022/09/21 07:20:48;;;;;;;75.67;5.53;;;10.20;99.90;;;;;;4967217;28;20200;-63
2022/09/21 07:23:17;;;;;;;80.77;5.90;;;10.30;99.90;;;;;;4968895;28;20697;-62
2022/09/21 07:25:45;;;;;;;37.83;4.83;;;10.30;99.90;;;;;;4968465;28;20693;-62
2022/09/21 07:28:12;;;;;;;66.70;5.43;;;10.40;99.90;;;;;;4940796;28;20243;-62
2022/09/21 07:30:40;;;;;;;7.20;4.53;;;10.90;99.90;;;;;;4935765;28;20919;-62
2022/09/21 07:33:08;;;;;;;4.72;4.25;;;10.60;99.90;;;;;;4965585;28;20231;-64
2022/09/21 07:35:35;;;;;;;4.97;4.13;;;10.70;99.90;;;;;;4947572;28;20207;-62
2022/09/21 07:38:04;;;;;;;4.93;4.03;;;10.90;99.90;;;;;;4966467;28;20227;-63
2022/09/21 07:40:31;;;;;;;15.90;4.80;;;10.80;99.90;;;;;;4942609;28;20964;-62
2022/09/21 07:43:00;;;;;;;5.83;4.90;;;10.90;99.90;;;;;;4944839;28;20222;-64
2022/09/21 07:45:27;;;;;;;9.80;5.50;;;11.00;99.90;;;;;;4958454;28;20215;-64
2022/09/21 07:47:55;;;;;;;7.97;5.17;;;11.10;99.90;;;;;;4939895;28;20235;-64
2022/09/21 07:50:23;;;;;;;7.10;4.80;;;11.20;99.90;;;;;;4948150;28;20219;-63
2022/09/21 07:52:50;;;;;;;9.20;5.57;;;11.20;99.90;;;;;;4969913;28;20211;-64
2022/09/21 07:55:17;;;;;;;10.00;5.00;;;14.70;99.90;;;;;;4953953;28;20219;-64
2022/09/21 08:00:31;;;;;;;11.40;4.32;;;11.40;99.90;;;;;;4959808;28;20584;-63
2022/09/21 08:03:00;;;;;;;8.05;3.65;;;11.40;99.90;;;;;;4929171;28;20218;-63
2022/09/21 08:05:28;;;;;;;11.13;4.18;;;12.40;99.90;;;;;;4946113;28;20238;-64
2022/09/21 08:07:55;;;;;;;7.70;3.53;;;11.50;99.90;;;;;;4967465;28;20219;-63
2022/09/21 08:10:22;;;;;;;8.07;4.15;;;11.80;99.90;;;;;;4950976;28;20227;-63
2022/09/21 08:12:50;;;;;;;17.40;3.92;;;11.60;99.90;;;;;;4950950;28;20399;-64
2022/09/21 08:15:16;;;;;;;9.90;4.15;;;11.70;99.90;;;;;;4966836;28;20200;-64
2022/09/21 08:17:43;;;;;;;10.18;4.03;;;11.80;99.90;;;;;;4945631;28;20227;-63
2022/09/21 08:20:10;;;;;;;7.07;3.67;;;11.80;99.90;;;;;;4953417;28;20913;-63
2022/09/21 08:22:38;;;;;;;5.68;3.33;;;11.90;99.90;;;;;;4947433;28;20222;-63
2022/09/21 08:25:06;;;;;;;6.85;3.50;;;12.10;99.90;;;;;;4954574;28;20246;-63
2022/09/21 08:27:33;;;;;;;9.15;3.53;;;12.20;99.90;;;;;;4971331;23;20241;-65
2022/09/21 08:30:01;;;;;;;12.02;3.45;;;11.90;99.90;;;;;;4978878;28;21004;-63
2022/09/21 08:32:29;;;;;;;9.18;3.60;;;12.20;99.90;;;;;;4975686;28;20704;-65
2022/09/21 08:34:56;;;;;;;7.00;3.88;;;11.90;99.90;;;;;;4985622;28;20221;-64
2022/09/21 08:37:23;;;;;;;14.30;4.07;;;12.10;99.90;;;;;;4986566;28;20644;-63
2022/09/21 08:39:51;;;;;;;8.57;3.42;;;12.20;99.90;;;;;;5005267;28;20201;-64
2022/09/21 08:42:38;;;;;;;13.25;3.47;;;12.30;99.90;;;;;;4988456;28;20230;-64
2022/09/21 08:45:12;;;;;;;7.10;3.33;;;12.40;99.90;;;;;;4980523;28;20210;-64
2022/09/21 08:47:43;;;;;;;9.57;3.10;;;11.90;99.90;;;;;;5005433;28;20213;-63
2022/09/21 08:50:26;;;;;;;8.65;3.10;;;12.00;99.90;;;;;;4967006;28;20233;-64
2022/09/21 08:52:58;;;;;;;7.88;2.58;;;12.20;99.90;;;;;;4986673;28;20222;-64
2022/09/21 08:55:27;;;;;;;7.50;2.60;;;12.10;99.90;;;;;;4998259;28;20218;-63
2022/09/21 08:57:53;;;;;;;9.60;2.63;;;12.10;99.90;;;;;;4984208;28;20238;-63
2022/09/21 09:00:21;;;;;;;10.05;3.22;;;13.80;99.90;;;;;;4980894;28;20287;-64
2022/09/21 09:03:29;;;;;;;5.45;2.55;;;12.20;99.90;;;;;;4993762;28;20213;-64
2022/09/21 09:06:01;;;;;;;7.20;2.63;;;12.20;99.90;;;;;;4958044;28;20229;-64
2022/09/21 09:09:10;;;;;;;10.38;2.72;;;12.20;99.90;;;;;;4979118;28;20241;-63
2022/09/21 09:11:51;;;;;;;6.68;2.90;;;12.20;99.90;;;;;;4981083;28;20218;-64
2022/09/21 09:14:45;;;;;;;9.45;2.50;;;12.30;99.90;;;;;;4979781;28;20364;-64
2022/09/21 09:17:31;;;;;;;7.53;2.45;;;10.40;99.90;;;;;;4984488;28;20221;-63
2022/09/21 09:20:03;;;;;;;6.90;2.10;;;12.20;99.90;;;;;;4976813;28;20209;-64
2022/09/21 09:22:34;;;;;;;5.90;2.40;;;12.20;99.90;;;;;;4972245;28;20388;-64
2022/09/21 09:25:04;;;;;;;4.47;1.90;;;12.30;99.90;;;;;;4986402;28;20222;-64
2022/09/21 09:27:36;;;;;;;3.47;1.70;;;12.30;99.90;;;;;;4994291;28;20252;-64
2022/09/21 09:30:06;;;;;;;6.53;2.30;;;12.40;99.90;;;;;;4993199;28;20225;-64
2022/09/21 09:32:39;;;;;;;7.03;1.98;;;12.40;99.90;;;;;;4973855;28;20213;-63
2022/09/21 09:35:19;;;;;;;8.18;2.50;;;12.90;99.90;;;;;;4996367;28;20233;-63
2022/09/21 09:37:48;;;;;;;7.80;2.10;;;14.10;99.90;;;;;;4979331;28;20260;-63
2022/09/21 09:40:29;;;;;;;10.40;2.03;;;12.80;99.90;;;;;;4984627;28;20231;-64
2022/09/21 09:43:05;;;;;;;8.60;2.28;;;12.60;99.90;;;;;;5003621;28;20213;-64
2022/09/21 09:45:48;;;;;;;4.63;1.50;;;13.00;99.90;;;;;;4988950;28;20926;-64
2022/09/21 09:48:38;;;;;;;8.45;2.40;;;12.90;99.90;;;;;;5005007;28;20225;-64
2022/09/21 09:51:07;;;;;;;5.03;1.60;;;12.80;99.90;;;;;;5007190;28;20206;-66
2022/09/21 09:53:35;;;;;;;5.32;1.50;;;12.80;99.30;;;;;;4968892;28;20210;-64
2022/09/21 09:56:02;;;;;;;12.40;1.40;;;12.80;98.40;;;;;;4988226;28;20226;-64
2022/09/21 09:58:39;;;;;;;6.15;1.83;;;13.00;99.90;;;;;;4998542;28;21325;-64
2022/09/21 10:01:07;;;;;;;2.85;1.48;;;12.80;98.80;;;;;;4979429;28;20236;-64
2022/09/21 10:03:34;;;;;;;7.57;1.80;;;12.80;98.40;;;;;;4986928;28;20228;-63
2022/09/21 10:06:01;;;;;;;7.18;2.28;;;12.70;96.00;;;;;;4989830;28;20368;-63
2022/09/21 10:08:41;;;;;;;5.20;1.50;;;12.80;95.70;;;;;;4961189;28;20226;-64
2022/09/21 10:11:09;;;;;;;2.53;1.17;;;14.10;93.80;;;;;;4989078;28;20941;-63
2022/09/21 10:13:38;;;;;;;8.40;1.90;;;13.20;94.10;;;;;;5002910;28;20322;-65
2022/09/21 10:16:11;;;;;;;5.18;1.73;;;12.90;92.80;;;;;;4998539;28;20202;-62
2022/09/21 10:18:40;;;;;;;3.45;1.08;;;13.00;89.60;;;;;;4984386;28;20226;-63
2022/09/21 10:21:09;;;;;;;5.40;1.50;;;13.00;79.20;;;;;;4989067;28;20226;-64
2022/09/21 10:23:37;;;;;;;4.35;1.30;;;;;;;;;;4965815;28;20246;-64
2022/09/21 10:26:07;;;;;;;5.72;2.17;;;13.00;77.80;;;;;;4977876;28;20233;-63
2022/09/21 10:28:35;;;;;;;6.43;1.48;;;13.00;78.20;;;;;;5000935;28;20202;-66
2022/09/21 10:31:28;;;;;;;8.45;1.95;;;13.10;79.00;;;;;;4985916;28;20228;-64
2022/09/21 10:34:07;;;;;;;4.10;1.17;;;13.20;82.10;;;;;;4955713;28;20786;-65
2022/09/21 10:36:35;;;;;;;3.55;1.23;;;14.50;71.60;;;;;;4986939;28;20223;-64
2022/09/21 10:39:23;;;;;;;4.38;1.33;;;13.10;69.80;;;;;;4988756;28;20351;-64
2022/09/21 10:41:53;;;;;;;4.30;1.27;;;13.30;63.90;;;;;;4990355;28;22946;-65
2022/09/21 10:44:24;;;;;;;7.57;1.65;;;13.30;70.20;;;;;;5010232;28;20224;-64
2022/09/21 10:46:53;;;;;;;1.45;0.95;;;13.20;73.40;;;;;;4995036;28;20230;-64
2022/09/21 10:49:22;;;;;;;4.00;1.35;;;13.40;67.70;;;;;;4980637;28;20206;-65
2022/09/21 10:51:51;;;;;;;3.90;1.23;;;13.40;49.90;;;;;;5003684;28;20222;-65
2022/09/21 10:54:23;;;;;;;6.65;1.70;;;13.70;52.90;;;;;;4966343;28;20210;-65
2022/09/21 10:56:53;;;;;;;4.40;1.42;;;13.70;55.70;;;;;;5002476;28;20225;-64
2022/09/21 10:59:26;;;;;;;3.17;1.20;;;13.60;53.50;;;;;;4964533;28;20230;-65
2022/09/21 11:01:56;;;;;;;4.90;1.58;;;13.80;51.10;;;;;;5001155;28;20194;-64
2022/09/21 11:04:31;;;;;;;6.57;1.60;;;13.70;47.80;;;;;;4969062;28;21019;-65
2022/09/21 11:07:05;;;;;;;2.60;1.20;;;13.60;52.70;;;;;;4986895;28;20222;-65
2022/09/21 11:09:39;;;;;;;6.68;1.38;;;13.70;58.70;;;;;;4954620;28;20233;-65
2022/09/21 11:12:18;;;;;;;1.33;0.90;;;13.60;55.70;;;;;;4974281;23;20257;-65
2022/09/21 11:14:52;;;;;;;1.38;0.90;;;13.60;48.50;;;;;;4937325;28;20227;-65
2022/09/21 11:17:34;;;;;;;5.25;1.08;;;13.60;43.90;;;;;;4949735;28;20219;-65
2022/09/21 11:20:14;;;;;;;5.45;1.38;;;14.30;42.60;;;;;;4945815;23;20235;-64
2022/09/21 11:22:43;;;;;;;4.88;1.60;;;;;;;;;;4960980;28;20204;-64
2022/09/21 11:25:24;;;;;;;5.93;1.45;;;13.50;47.70;;;;;;4925293;28;20208;-64
2022/09/21 11:27:57;;;;;;;6.63;1.50;;;13.40;46.90;;;;;;4966716;28;20204;-65
2022/09/21 11:30:32;;;;;;;5.65;1.25;;;13.70;43.80;;;;;;4954503;23;20255;-65
2022/09/21 11:33:14;;;;;;;3.10;1.10;;;13.70;45.90;;;;;;4946142;28;20196;-64
2022/09/21 11:35:58;;;;;;;3.08;1.17;;;13.80;45.50;;;;;;4888396;28;20242;-64
2022/09/21 11:38:39;;;;;;;3.17;1.40;;;13.80;39.80;;;;;;4924331;28;21005;-63
2022/09/21 11:41:29;;;;;;;2.53;1.30;;;13.60;33.60;;;;;;4885283;28;20228;-64
2022/09/21 11:44:11;;;;;;;3.45;1.10;;;13.60;23.80;;;;;;4925098;28;20221;-63
2022/09/21 11:46:45;;;;;;;4.40;1.35;;;13.90;20.00;;;;;;4896610;28;20380;-65
2022/09/21 11:49:35;;;;;;;2.83;0.95;;;13.90;9.70;;;;;;4914127;28;20229;-64
2022/09/21 11:52:14;;;;;;;6.10;1.50;;;13.80;12.00;;;;;;4904210;23;21662;-64
2022/09/21 11:55:13;;;;;;;6.22;1.55;;;13.90;10.10;;;;;;4916059;28;21282;-65
2022/09/21 11:57:47;;;;;;;5.05;1.40;;;14.00;25.40;;;;;;4899792;28;20231;-64
2022/09/21 12:00:17;;;;;;;3.95;1.90;;;14.00;7.20;;;;;;4936639;28;20252;-64
2022/09/21 12:02:50;;;;;;;3.05;1.45;;;;;;;;;;4916003;28;20224;-64
2022/09/21 12:05:24;;;;;;;4.30;1.70;;;14.00;14.80;;;;;;4926230;28;20717;-64
2022/09/21 12:08:06;;;;;;;4.32;1.45;;;14.20;21.40;;;;;;4906917;28;20809;-65
2022/09/21 12:10:43;;;;;;;2.83;1.40;;;14.50;1.00;;;;;;4921107;28;20243;-64
2022/09/21 12:13:19;;;;;;;3.65;1.30;;;14.40;1.00;;;;;;4921778;28;20226;-65
2022/09/21 12:15:54;;;;;;;5.15;1.55;;;14.30;1.00;;;;;;4943373;28;20215;-65
2022/09/21 12:18:28;;;;;;;5.10;1.42;;;14.40;1.00;;;;;;4922789;28;20681;-65
2022/09/21 12:21:04;;;;;;;3.95;1.50;;;14.40;18.20;;;;;;4927590;28;20726;-65
2022/09/21 12:23:41;;;;;;;3.47;1.67;;;14.40;15.00;;;;;;4925738;28;21016;-64
2022/09/21 12:26:12;;;;;;;9.40;1.50;;;14.30;10.60;;;;;;4917260;28;26072;-65
2022/09/21 12:28:42;;;;;;;2.25;1.38;;;14.20;10.80;;;;;;4920784;28;20587;-64
2022/09/21 12:31:15;;;;;;;6.00;1.77;;;14.20;15.10;;;;;;4942271;28;20232;-64
2022/09/21 12:33:48;;;;;;;3.75;1.67;;;14.20;13.20;;;;;;4932777;28;20294;-63
2022/09/21 12:36:19;;;;;;;5.22;1.60;;;;;;;;;;4903194;28;21409;-64
2022/09/21 12:38:53;;;;;;;3.50;1.85;;;14.30;26.30;;;;;;4921245;28;20826;-64
2022/09/21 12:41:26;;;;;;;4.05;1.73;;;14.00;22.00;;;;;;4884855;28;20230;-64
2022/09/21 12:43:57;;;;;;;4.35;1.80;;;;;;;;;;4918147;28;20788;-64
2022/09/21 12:46:28;;;;;;;8.80;1.90;;;14.10;1.00;;;;;;4926414;28;20219;-64
2022/09/21 12:48:58;;;;;;;8.48;1.73;;;14.20;1.00;;;;;;4929684;28;20217;-64
2022/09/21 12:51:31;;;;;;;9.23;1.38;;;14.30;1.00;;;;;;4929156;28;20234;-63
2022/09/21 12:54:02;;;;;;;6.32;1.83;;;14.30;13.60;;;;;;4913365;28;20243;-64
2022/09/21 12:56:38;;;;;;;6.80;1.55;;;14.40;1.00;;;;;;4923797;28;20231;-63
2022/09/21 12:59:23;;;;;;;5.95;1.42;;;16.50;7.20;;;;;;4890626;28;20310;-65
2022/09/21 13:01:54;;;;;;;6.32;1.90;;;14.50;1.00;;;;;;4933642;28;20234;-65
2022/09/21 13:04:42;;;;;;;4.20;1.20;;;14.40;1.00;;;;;;4929012;28;20212;-64
2022/09/21 13:07:45;;;;;;;3.50;1.08;;;15.50;1.00;;;;;;4917080;28;21316;-63
2022/09/21 13:10:20;;;;;;;6.28;1.42;;;14.80;1.00;;;;;;4910096;28;20227;-64
2022/09/21 13:12:53;;;;;;;4.90;1.25;;;14.60;1.00;;;;;;4921094;28;20255;-64
2022/09/21 13:15:25;;;;;;;3.10;1.50;;;14.80;1.00;;;;;;4910774;28;21804;-64
2022/09/21 13:18:01;;;;;;;5.95;1.60;;;14.90;1.00;;;;;;4928321;28;20209;-65
2022/09/21 13:20:33;;;;;;;4.68;1.27;;;14.90;1.00;;;;;;4928149;28;20797;-64